Chimayo, New Mexico
Current Conditions -  °F | °C
As of 1:35 PM on Friday 21 Nov 2014 (Local Time) from KLAM Reporting Station
Clear Clear  
Wind Chill: 43°   Ceiling: Unl
Heat Index: 43°   Visibility: 10mi
Dew Point: 20°   Wind: 3mph
Humidity: 40%   Direction: 50°NE
Pressure: 30.05"   Gusts: NA
Location:  36°N, 105.93°W
Report Text: KLAM 212035Z AUTO 05003KT 10SM CLR 06/M06 A3005 RMK AO2 T00621064
Loading
Personal Weather Stations






























Interactive Weather Map New forecast layout! Learn more

10-Day Weather Forecast

Advertisements
Track Severe Weather on mobile